DCOAP EDDM-LSZS
Flight info
| Callsign | DCOAP |
|---|---|
| Flight time | N/A |
| Altitude | 22000 |
| Route | MERSI5S/26L MERSI Y100 ATMAX/N0382F210 Y740 TIRUL Z408 RONAG |
| Aircraft | GLEX/M-SDFGIRWY/S |
Departure
| Time | N/A |
|---|---|
| Airport | Munich Airport (EDDM) |
Arrival
| Time | 2026-04-24 19:04 |
|---|---|
| Airport | Engadin Airport (LSZS) |
| Time | Latitude | Longitude | Altitude | Speed | Heading |
|---|---|---|---|---|---|
| 2026-04-24 18:54 | 47.67889 | 10.61884 | 30132 ft | 533 kts | 191° |
| 2026-04-24 18:55 | 47.57305 | 10.56906 | 30131 ft | 533 kts | 203° |
| 2026-04-24 18:56 | 47.50425 | 10.53101 | 30121 ft | 535 kts | 197° |
| 2026-04-24 18:56 | 47.43242 | 10.49984 | 30115 ft | 537 kts | 194° |
| 2026-04-24 18:57 | 47.35848 | 10.48793 | 30120 ft | 536 kts | 179° |
| 2026-04-24 18:57 | 47.28413 | 10.49665 | 30136 ft | 536 kts | 174° |
| 2026-04-24 18:58 | 47.20982 | 10.49944 | 30150 ft | 536 kts | 185° |
| 2026-04-24 18:58 | 47.17295 | 10.49192 | 29262 ft | 537 kts | 191° |
| 2026-04-24 18:58 | 47.13673 | 10.47772 | 27881 ft | 540 kts | 198° |
| 2026-04-24 18:58 | 47.10161 | 10.45761 | 26531 ft | 544 kts | 204° |
| 2026-04-24 18:59 | 47.06682 | 10.43515 | 25261 ft | 549 kts | 204° |
| 2026-04-24 18:59 | 47.03166 | 10.41299 | 24040 ft | 552 kts | 203° |
| 2026-04-24 18:59 | 46.99620 | 10.39089 | 22686 ft | 556 kts | 203° |
| 2026-04-24 18:59 | 46.96055 | 10.36872 | 21277 ft | 558 kts | 203° |
| 2026-04-24 19:00 | 46.92467 | 10.34639 | 19895 ft | 562 kts | 203° |
| 2026-04-24 19:00 | 46.88859 | 10.32395 | 18599 ft | 566 kts | 203° |
| 2026-04-24 19:00 | 46.85229 | 10.30139 | 17163 ft | 569 kts | 203° |
| 2026-04-24 19:00 | 46.81565 | 10.27866 | 16255 ft | 573 kts | 203° |
| 2026-04-24 19:01 | 46.77893 | 10.25585 | 15699 ft | 574 kts | 203° |
| 2026-04-24 19:01 | 46.74209 | 10.23299 | 15135 ft | 576 kts | 203° |
| 2026-04-24 19:01 | 46.70624 | 10.20742 | 15273 ft | 571 kts | 216° |
| 2026-04-24 19:01 | 46.67874 | 10.16602 | 15426 ft | 569 kts | 237° |
| 2026-04-24 19:02 | 46.66664 | 10.13132 | 14706 ft | 571 kts | 246° |
| 2026-04-24 19:02 | 46.64386 | 10.06315 | 13565 ft | 549 kts | 242° |
| 2026-04-24 19:02 | 46.62457 | 10.01774 | 12764 ft | 504 kts | 238° |
| 2026-04-24 19:02 | 46.60578 | 9.97670 | 10944 ft | 423 kts | 237° |
| 2026-04-24 19:03 | 46.59120 | 9.94675 | 9342 ft | 331 kts | 235° |
| 2026-04-24 19:03 | 46.57654 | 9.92283 | 7154 ft | 304 kts | 223° |
| 2026-04-24 19:03 | 46.56372 | 9.90858 | 6295 ft | 265 kts | 215° |
| 2026-04-24 19:03 | 46.55382 | 9.90019 | 5950 ft | 224 kts | 207° |
| 2026-04-24 19:04 | 46.54133 | 9.88992 | 5656 ft | 190 kts | 210° |
| 2026-04-24 19:04 | 46.53113 | 9.88162 | 5610 ft | 136 kts | 210° |
| 2026-04-24 19:04 | 46.52977 | 9.88050 | 5601 ft | 0 kts | 210° |
| 2026-04-24 19:04 | 46.52976 | 9.88047 | 5600 ft | 3 kts | 222° |
| 2026-04-24 19:05 | 46.52984 | 9.87992 | 5599 ft | 9 kts | 297° |
| 2026-04-24 19:05 | 46.53046 | 9.87941 | 5601 ft | 14 kts | 22° |
| 2026-04-24 19:05 | 46.53114 | 9.88008 | 5602 ft | 11 kts | 356° |
| 2026-04-24 19:05 | 46.53136 | 9.87979 | 5604 ft | 0 kts | 292° |